Time;durP1;ratioP1;P1;durP2;ratioP2;P2;SDS_P1;SDS_P2;PMS_P1;PMS_P2;Temp;Humidity;BMP_temperature;BMP_pressure;BME280_temperature;BME280_humidity;BME280_pressure;Samples;Min_cycle;Max_cycle;Signal;HPM_P1;HPM_P2
2023/07/03 00:02:08;;;;;;;28.88;5.55;;;;;;;;;;4940745;28;22364;-63
2023/07/03 00:04:37;;;;;;;31.40;5.93;;;;;;;;;;4942837;28;20073;-60
2023/07/03 00:07:03;;;;;;;31.63;5.57;;;;;;;;;;4920567;28;20258;-64
2023/07/03 00:09:29;;;;;;;27.42;5.30;;;;;;;;;;4921140;28;20030;-59
2023/07/03 00:11:54;;;;;;;31.40;5.57;;;;;;;;;;4942260;28;20108;-62
2023/07/03 00:14:19;;;;;;;35.13;6.00;;;;;;;;;;4943084;28;20126;-61
2023/07/03 00:16:45;;;;;;;23.25;4.38;;;;;;;;;;4919997;28;20039;-61
2023/07/03 00:19:13;;;;;;;24.40;4.45;;;;;;;;;;4941041;28;20112;-62
2023/07/03 00:21:43;;;;;;;24.27;4.03;;;;;;;;;;4942128;28;20583;-62
2023/07/03 00:24:09;;;;;;;25.15;4.43;;;;;;;;;;4925134;28;20066;-63
2023/07/03 00:26:37;;;;;;;23.23;4.72;;;;;;;;;;4943123;28;20039;-65
2023/07/03 00:29:02;;;;;;;24.38;3.88;;;;;;;;;;4941309;28;20135;-61
2023/07/03 00:31:28;;;;;;;20.83;4.15;;;;;;;;;;4941191;28;20087;-60
2023/07/03 00:33:53;;;;;;;23.38;3.03;;;;;;;;;;4940781;28;20063;-62
2023/07/03 00:36:18;;;;;;;23.92;4.60;;;;;;;;;;4904893;28;20061;-62
2023/07/03 00:38:43;;;;;;;23.30;3.60;;;;;;;;;;4941701;28;20509;-62
2023/07/03 00:41:09;;;;;;;19.00;3.72;;;;;;;;;;4942146;28;20042;-62
2023/07/03 00:43:38;;;;;;;18.70;3.58;;;;;;;;;;4942792;28;20929;-60
2023/07/03 00:46:03;;;;;;;18.88;2.80;;;;;;;;;;4940839;28;20166;-60
2023/07/03 00:48:29;;;;;;;20.75;3.17;;;;;;;;;;4940015;28;20038;-60
2023/07/03 00:50:54;;;;;;;19.75;3.53;;;;;;;;;;4939910;28;20035;-60
2023/07/03 00:53:19;;;;;;;22.85;4.00;;;;;;;;;;4941682;28;20023;-61
2023/07/03 00:55:45;;;;;;;15.25;3.50;;;;;;;;;;4908499;28;20031;-62
2023/07/03 00:58:10;;;;;;;19.20;3.40;;;;;;;;;;4928576;28;20047;-61
2023/07/03 01:00:39;;;;;;;26.33;4.78;;;;;;;;;;4918426;28;20031;-61
2023/07/03 01:03:11;;;;;;;24.45;3.78;;;;;;;;;;4924040;28;20059;-61
2023/07/03 01:05:40;;;;;;;21.27;3.45;;;;;;;;;;4928293;28;20496;-61
2023/07/03 01:08:05;;;;;;;20.42;3.30;;;;;;;;;;4919703;28;20070;-68
2023/07/03 01:10:31;;;;;;;18.70;3.55;;;;;;;;;;4941552;28;20046;-67
2023/07/03 01:13:01;;;;;;;19.20;3.20;;;;;;;;;;4941405;28;20169;-69
2023/07/03 01:15:28;;;;;;;17.27;3.60;;;;;;;;;;4919837;28;20531;-68
2023/07/03 01:17:55;;;;;;;24.23;3.00;;;;;;;;;;4940799;28;20612;-67
2023/07/03 01:20:21;;;;;;;20.63;2.97;;;;;;;;;;4940485;28;20043;-68
2023/07/03 01:23:05;;;;;;;16.55;3.13;;;;;;;;;;4941108;28;21225;-63
2023/07/03 01:25:30;;;;;;;18.05;3.03;;;;;;;;;;4941231;28;20050;-66
2023/07/03 01:27:58;;;;;;;21.48;3.65;;;;;;;;;;4941517;28;20031;-67
2023/07/03 01:30:24;;;;;;;20.77;3.13;;;;;;;;;;4927813;28;20066;-66
2023/07/03 01:32:51;;;;;;;17.23;3.00;;;;;;;;;;4940844;28;20497;-66
2023/07/03 01:35:18;;;;;;;22.27;3.00;;;;;;;;;;4938791;28;20058;-66
2023/07/03 01:37:46;;;;;;;16.10;2.80;;;;;;;;;;4940960;28;20043;-66
2023/07/03 01:40:14;;;;;;;15.52;3.10;;;;;;;;;;4941427;28;20054;-68
2023/07/03 01:42:40;;;;;;;21.65;3.10;;;;;;;;;;4938312;28;20037;-67
2023/07/03 01:45:07;;;;;;;19.95;3.08;;;;;;;;;;4908109;28;20047;-68
2023/07/03 01:47:32;;;;;;;18.52;3.40;;;;;;;;;;4935130;28;20042;-66
2023/07/03 01:49:57;;;;;;;19.30;3.17;;;;;;;;;;4940516;28;20046;-68
2023/07/03 01:52:35;;;;;;;19.77;2.92;;;;;;;;;;4917967;28;20038;-69
2023/07/03 01:55:06;;;;;;;21.50;3.50;;;;;;;;;;4941488;28;20141;-69
2023/07/03 01:57:32;;;;;;;20.77;4.13;;;;;;;;;;4939988;28;20050;-68
2023/07/03 01:59:57;;;;;;;18.58;3.00;;;;;;;;;;4919189;28;20049;-68
2023/07/03 02:02:27;;;;;;;16.45;3.05;;;;;;;;;;4939821;28;20691;-68
2023/07/03 02:04:57;;;;;;;19.60;3.10;;;;;;;;;;4940037;28;20061;-69
2023/07/03 02:07:24;;;;;;;25.05;3.85;;;;;;;;;;4923014;28;20145;-68
2023/07/03 02:09:49;;;;;;;24.00;3.60;;;;;;;;;;4923816;28;20050;-68
2023/07/03 02:12:14;;;;;;;22.98;3.05;;;;;;;;;;4934757;28;20119;-68
2023/07/03 02:14:40;;;;;;;13.80;2.55;;;;;;;;;;4939694;28;20753;-67
2023/07/03 02:17:08;;;;;;;15.82;2.95;;;;;;;;;;4939345;28;20046;-66
2023/07/03 02:19:33;;;;;;;15.75;3.03;;;;;;;;;;4940063;28;20113;-68
2023/07/03 02:21:58;;;;;;;23.25;3.28;;;;;;;;;;4940937;28;20043;-67
2023/07/03 02:24:24;;;;;;;15.20;2.88;;;;;;;;;;4939756;28;21111;-67
2023/07/03 02:26:50;;;;;;;17.40;3.10;;;;;;;;;;4939094;28;20101;-68
2023/07/03 02:29:15;;;;;;;21.10;3.13;;;;;;;;;;4940183;28;20057;-68
2023/07/03 02:31:43;;;;;;;20.20;3.38;;;;;;;;;;4940528;28;20062;-67
2023/07/03 02:34:11;;;;;;;16.58;3.70;;;;;;;;;;4939707;28;20093;-69
2023/07/03 02:36:38;;;;;;;16.35;2.90;;;;;;;;;;4937548;28;20954;-69
2023/07/03 02:39:07;;;;;;;22.38;3.25;;;;;;;;;;4927876;28;20134;-68
2023/07/03 02:41:33;;;;;;;22.98;3.35;;;;;;;;;;4938438;28;20588;-67
2023/07/03 02:43:58;;;;;;;17.85;2.83;;;;;;;;;;4940747;28;20415;-68
2023/07/03 02:46:24;;;;;;;10.93;2.45;;;;;;;;;;4916987;28;20073;-67
2023/07/03 02:48:49;;;;;;;19.50;3.42;;;;;;;;;;4939329;28;20042;-68
2023/07/03 02:51:14;;;;;;;21.08;3.13;;;;;;;;;;4936059;28;20452;-68
2023/07/03 02:53:40;;;;;;;14.40;3.17;;;;;;;;;;4938516;28;20046;-69
2023/07/03 02:56:06;;;;;;;15.15;3.55;;;;;;;;;;4920639;28;20556;-68
2023/07/03 02:58:31;;;;;;;20.40;3.47;;;;;;;;;;4938688;28;20038;-65
2023/07/03 03:00:56;;;;;;;15.90;3.38;;;;;;;;;;4937517;28;20034;-66
2023/07/03 03:03:22;;;;;;;21.60;3.42;;;;;;;;;;4937401;28;20041;-67
2023/07/03 03:05:47;;;;;;;20.98;2.75;;;;;;;;;;4937118;28;20050;-67
2023/07/03 03:08:12;;;;;;;21.60;3.58;;;;;;;;;;4937941;28;20139;-69
2023/07/03 03:10:38;;;;;;;20.92;3.17;;;;;;;;;;4935818;28;20759;-68
2023/07/03 03:13:03;;;;;;;21.90;3.40;;;;;;;;;;4918491;28;20038;-69
2023/07/03 03:15:30;;;;;;;18.42;2.90;;;;;;;;;;4918679;28;20097;-69
2023/07/03 03:17:58;;;;;;;22.15;3.67;;;;;;;;;;4937699;28;20512;-69
2023/07/03 03:20:23;;;;;;;20.13;2.85;;;;;;;;;;4938309;28;20039;-68
2023/07/03 03:22:49;;;;;;;23.33;2.97;;;;;;;;;;4937593;28;20479;-69
2023/07/03 03:25:14;;;;;;;23.40;3.55;;;;;;;;;;4939445;28;20042;-67
2023/07/03 03:27:39;;;;;;;23.92;4.00;;;;;;;;;;4938937;28;20073;-70
2023/07/03 03:30:05;;;;;;;22.98;3.33;;;;;;;;;;4916775;28;20099;-69
2023/07/03 03:32:30;;;;;;;21.65;4.25;;;;;;;;;;4938348;28;20108;-68
2023/07/03 03:34:55;;;;;;;19.85;3.42;;;;;;;;;;4937080;28;20047;-69
2023/07/03 03:37:21;;;;;;;20.63;3.55;;;;;;;;;;4938840;28;21039;-65
2023/07/03 03:39:46;;;;;;;22.75;3.65;;;;;;;;;;4939958;28;20041;-68
2023/07/03 03:42:14;;;;;;;31.92;3.67;;;;;;;;;;4941682;28;20538;-68
2023/07/03 03:44:39;;;;;;;23.27;3.25;;;;;;;;;;4923932;28;20064;-68
2023/07/03 03:47:04;;;;;;;26.27;3.28;;;;;;;;;;4941095;28;20499;-68
2023/07/03 03:49:31;;;;;;;20.85;3.45;;;;;;;;;;4942002;28;20118;-67
2023/07/03 03:51:56;;;;;;;15.88;3.60;;;;;;;;;;4941336;28;20052;-67
2023/07/03 03:54:21;;;;;;;26.25;3.60;;;;;;;;;;4941215;28;20047;-67
2023/07/03 03:56:47;;;;;;;23.83;3.45;;;;;;;;;;4941132;28;20039;-68
2023/07/03 03:59:12;;;;;;;24.10;3.88;;;;;;;;;;4919790;28;20042;-66
2023/07/03 04:01:38;;;;;;;21.08;3.55;;;;;;;;;;4941422;28;20155;-67
2023/07/03 04:04:04;;;;;;;21.50;4.15;;;;;;;;;;4941205;28;20082;-66
2023/07/03 04:06:29;;;;;;;26.95;3.90;;;;;;;;;;4940409;28;20027;-68
2023/07/03 04:08:58;;;;;;;23.42;3.72;;;;;;;;;;4919763;28;20129;-64
2023/07/03 04:11:24;;;;;;;26.70;4.30;;;;;;;;;;4941802;28;20027;-67
2023/07/03 04:13:49;;;;;;;25.52;4.07;;;;;;;;;;4942309;28;21022;-68
2023/07/03 04:16:15;;;;;;;22.70;3.38;;;;;;;;;;4941496;28;20716;-69
2023/07/03 04:18:42;;;;;;;22.58;3.78;;;;;;;;;;4940498;28;20149;-69
2023/07/03 04:21:10;;;;;;;29.23;4.43;;;;;;;;;;4941923;28;20038;-68
2023/07/03 04:23:35;;;;;;;20.90;4.05;;;;;;;;;;4942122;28;20701;-67
2023/07/03 04:26:02;;;;;;;29.33;4.22;;;;;;;;;;4941338;28;20047;-67
2023/07/03 04:28:30;;;;;;;23.05;3.70;;;;;;;;;;4941823;28;20522;-67
2023/07/03 04:30:56;;;;;;;26.20;3.50;;;;;;;;;;4942416;28;20043;-67
2023/07/03 04:33:21;;;;;;;20.52;3.65;;;;;;;;;;4941216;28;20069;-67
2023/07/03 04:35:47;;;;;;;22.75;3.58;;;;;;;;;;4942757;28;20046;-67
2023/07/03 04:38:12;;;;;;;26.27;4.35;;;;;;;;;;4942868;28;20519;-67
2023/07/03 04:40:40;;;;;;;19.45;3.08;;;;;;;;;;4941972;28;20031;-67
2023/07/03 04:43:08;;;;;;;26.83;3.92;;;;;;;;;;4941453;28;20220;-67
2023/07/03 04:45:37;;;;;;;20.00;3.83;;;;;;;;;;4940837;28;20070;-67
2023/07/03 04:48:03;;;;;;;17.55;3.17;;;;;;;;;;4942490;28;20043;-65
2023/07/03 04:50:29;;;;;;;17.35;2.97;;;;;;;;;;4939670;28;20062;-67
2023/07/03 04:52:54;;;;;;;21.17;3.53;;;;;;;;;;4939605;28;20047;-68
2023/07/03 04:55:19;;;;;;;22.02;3.90;;;;;;;;;;4937126;28;20050;-69
2023/07/03 04:57:45;;;;;;;23.95;3.63;;;;;;;;;;4938872;28;20640;-67
2023/07/03 05:00:15;;;;;;;21.63;3.53;;;;;;;;;;4938215;28;20066;-67
2023/07/03 05:02:41;;;;;;;23.05;3.70;;;;;;;;;;4938533;28;20046;-68
2023/07/03 05:05:07;;;;;;;20.63;3.22;;;;;;;;;;4923509;28;20047;-70
2023/07/03 05:07:32;;;;;;;21.52;3.38;;;;;;;;;;4940358;28;20045;-70
2023/07/03 05:09:58;;;;;;;22.65;4.65;;;;;;;;;;4941485;28;20046;-68
2023/07/03 05:12:26;;;;;;;20.73;3.22;;;;;;;;;;4939486;28;20062;-69
2023/07/03 05:14:51;;;;;;;24.17;3.58;;;;;;;;;;4939891;28;21469;-70
2023/07/03 05:17:17;;;;;;;17.38;3.28;;;;;;;;;;4939350;28;20042;-68
2023/07/03 05:19:42;;;;;;;26.67;4.07;;;;;;;;;;4940522;28;20575;-71
2023/07/03 05:22:07;;;;;;;22.23;2.95;;;;;;;;;;4938800;28;20036;-69
2023/07/03 05:24:34;;;;;;;20.77;3.38;;;;;;;;;;4917853;28;20102;-68
2023/07/03 05:26:59;;;;;;;20.02;3.80;;;;;;;;;;4934768;28;20049;-70
2023/07/03 05:29:24;;;;;;;20.83;3.00;;;;;;;;;;4941387;28;20622;-70
2023/07/03 05:31:50;;;;;;;17.35;2.85;;;;;;;;;;4902170;28;20073;-63
2023/07/03 05:34:15;;;;;;;17.90;3.45;;;;;;;;;;4939345;28;20034;-62
2023/07/03 05:36:41;;;;;;;18.63;2.47;;;;;;;;;;4940494;28;20043;-64
2023/07/03 05:39:08;;;;;;;23.00;3.40;;;;;;;;;;4940420;28;20045;-64
2023/07/03 05:41:34;;;;;;;16.45;2.70;;;;;;;;;;4941319;28;20038;-64
2023/07/03 05:43:59;;;;;;;19.23;3.05;;;;;;;;;;4940528;28;20077;-65
2023/07/03 05:46:24;;;;;;;21.20;3.22;;;;;;;;;;4939678;28;20035;-63
2023/07/03 05:48:50;;;;;;;23.58;3.85;;;;;;;;;;4942328;28;22259;-63
2023/07/03 05:51:15;;;;;;;18.77;3.38;;;;;;;;;;4940569;28;20031;-61
2023/07/03 05:53:40;;;;;;;15.13;2.42;;;;;;;;;;4939980;28;20038;-60
2023/07/03 05:56:06;;;;;;;15.98;2.75;;;;;;;;;;4918250;28;20046;-61
2023/07/03 05:58:32;;;;;;;15.98;2.90;;;;;;;;;;4938072;28;20046;-62
2023/07/03 06:01:00;;;;;;;16.33;3.13;;;;;;;;;;4939202;28;20035;-63
2023/07/03 06:03:25;;;;;;;16.15;3.00;;;;;;;;;;4938138;28;20041;-63
2023/07/03 06:05:51;;;;;;;18.20;3.00;;;;;;;;;;4938846;28;20043;-63
2023/07/03 06:08:16;;;;;;;14.30;2.67;;;;;;;;;;4941461;28;20632;-62
2023/07/03 06:10:41;;;;;;;25.45;3.40;;;;;;;;;;4940384;28;20039;-62
2023/07/03 06:13:07;;;;;;;16.98;3.35;;;;;;;;;;4938150;28;20558;-64
2023/07/03 06:15:34;;;;;;;20.83;3.10;;;;;;;;;;4938008;28;20077;-65
2023/07/03 06:18:02;;;;;;;18.42;3.03;;;;;;;;;;4934480;28;20039;-62
2023/07/03 06:20:27;;;;;;;21.02;3.35;;;;;;;;;;4938550;28;20520;-65
2023/07/03 06:22:52;;;;;;;20.95;3.33;;;;;;;;;;4939472;28;20031;-64
2023/07/03 06:25:21;;;;;;;16.92;2.45;;;;;;;;;;4936455;28;20054;-65
2023/07/03 06:27:47;;;;;;;18.88;3.08;;;;;;;;;;4937824;28;20035;-66
2023/07/03 06:30:12;;;;;;;18.08;2.67;;;;;;;;;;4938208;28;20061;-63
2023/07/03 06:32:37;;;;;;;16.65;3.05;;;;;;;;;;4914571;28;20090;-66
2023/07/03 06:35:03;;;;;;;14.95;3.10;;;;;;;;;;4939137;28;20518;-64
2023/07/03 06:37:28;;;;;;;21.77;3.17;;;;;;;;;;4938361;28;20046;-64
2023/07/03 06:39:53;;;;;;;21.17;2.90;;;;;;;;;;4937393;28;20073;-64
2023/07/03 06:42:19;;;;;;;20.75;3.20;;;;;;;;;;4916790;28;20034;-63
2023/07/03 06:44:44;;;;;;;18.48;2.75;;;;;;;;;;4938233;28;20093;-64
2023/07/03 06:47:12;;;;;;;19.90;3.60;;;;;;;;;;4935778;28;20038;-65
2023/07/03 06:49:37;;;;;;;17.23;2.70;;;;;;;;;;4936415;28;20121;-65
2023/07/03 06:52:03;;;;;;;15.77;3.20;;;;;;;;;;4937993;28;20043;-64
2023/07/03 06:54:30;;;;;;;14.10;2.90;;;;;;;;;;4912680;28;20508;-66
2023/07/03 06:56:56;;;;;;;14.40;2.50;;;;;;;;;;4918200;28;20074;-64
2023/07/03 06:59:23;;;;;;;16.85;3.10;;;;;;;;;;4919278;28;20057;-66
2023/07/03 07:01:48;;;;;;;16.50;2.95;;;;;;;;;;4897912;28;20051;-64
2023/07/03 07:04:14;;;;;;;21.23;2.88;;;;;;;;;;4919013;28;20137;-63
2023/07/03 07:06:40;;;;;;;21.33;3.33;;;;;;;;;;4917698;28;20055;-65
2023/07/03 07:09:05;;;;;;;20.95;2.78;;;;;;;;;;4916094;28;20654;-64
2023/07/03 07:11:32;;;;;;;16.15;2.88;;;;;;;;;;4916267;28;20039;-65
2023/07/03 07:13:58;;;;;;;22.58;3.25;;;;;;;;;;4917567;28;20595;-64
2023/07/03 07:16:31;;;;;;;14.60;2.67;;;;;;;;;;4898657;28;20043;-64
2023/07/03 07:18:57;;;;;;;18.70;2.75;;;;;;;;;;4923449;28;20030;-64
2023/07/03 07:21:23;;;;;;;13.20;2.72;;;;;;;;;;4899886;28;20115;-65
2023/07/03 07:23:50;;;;;;;18.25;2.72;;;;;;;;;;4929076;28;22273;-69
2023/07/03 07:26:15;;;;;;;18.13;2.65;;;;;;;;;;4928055;28;20479;-68
2023/07/03 07:28:43;;;;;;;17.80;2.85;;;;;;;;;;4924072;28;20042;-71
2023/07/03 07:31:08;;;;;;;13.07;2.58;;;;;;;;;;4923926;28;20085;-68
2023/07/03 07:33:35;;;;;;;18.27;3.10;;;;;;;;;;4923427;28;20043;-70
2023/07/03 07:36:01;;;;;;;17.45;2.72;;;;;;;;;;4911834;28;20039;-69
2023/07/03 07:38:26;;;;;;;20.20;3.22;;;;;;;;;;4926503;28;20118;-69
2023/07/03 07:41:04;;;;;;;21.05;2.60;;;;;;;;;;4927649;28;20036;-69
2023/07/03 07:43:29;;;;;;;26.90;3.92;;;;;;;;;;4928703;28;20138;-70
2023/07/03 07:45:57;;;;;;;17.20;3.10;;;;;;;;;;4925478;28;20046;-70
2023/07/03 07:48:23;;;;;;;19.33;3.13;;;;;;;;;;4927767;28;20150;-70
2023/07/03 07:50:49;;;;;;;21.08;2.70;;;;;;;;;;4921868;28;20035;-70
2023/07/03 07:53:14;;;;;;;19.33;3.30;;;;;;;;;;4924798;28;20050;-70
2023/07/03 07:55:41;;;;;;;20.40;3.17;;;;;;;;;;4924743;28;20126;-70
2023/07/03 07:58:07;;;;;;;17.52;2.70;;;;;;;;;;4924158;28;20575;-69
2023/07/03 08:00:32;;;;;;;21.13;2.80;;;;;;;;;;4921888;28;20195;-68
2023/07/03 08:02:57;;;;;;;18.30;2.78;;;;;;;;;;4924823;28;20043;-68
2023/07/03 08:05:23;;;;;;;15.45;2.25;;;;;;;;;;4926473;28;20047;-68
2023/07/03 08:07:48;;;;;;;16.25;2.67;;;;;;;;;;4928054;28;20043;-68
2023/07/03 08:10:14;;;;;;;16.98;2.67;;;;;;;;;;4924284;28;20035;-68
2023/07/03 08:12:39;;;;;;;15.57;2.83;;;;;;;;;;4928784;28;20035;-68
2023/07/03 08:15:05;;;;;;;17.52;2.70;;;;;;;;;;4934599;28;20036;-70
2023/07/03 08:17:31;;;;;;;19.38;2.63;;;;;;;;;;4931029;28;20036;-67
2023/07/03 08:19:56;;;;;;;20.55;3.17;;;;;;;;;;4926810;28;20665;-69
2023/07/03 08:22:21;;;;;;;17.00;3.13;;;;;;;;;;4925982;28;20047;-67
2023/07/03 08:24:47;;;;;;;14.38;3.03;;;;;;;;;;4922031;28;20142;-69
2023/07/03 08:27:12;;;;;;;21.08;3.38;;;;;;;;;;4922649;28;20035;-68
2023/07/03 08:29:40;;;;;;;23.13;3.25;;;;;;;;;;4903972;28;20035;-69
2023/07/03 08:32:08;;;;;;;15.15;2.47;;;;;;;;;;4924729;28;20043;-69
2023/07/03 08:34:34;;;;;;;16.73;2.58;;;;;;;;;;4904221;28;20657;-68
2023/07/03 08:36:59;;;;;;;20.02;3.08;;;;;;;;;;4931001;28;20031;-67
2023/07/03 08:39:24;;;;;;;18.77;2.95;;;;;;;;;;4909341;28;20061;-70
2023/07/03 08:41:54;;;;;;;18.02;3.05;;;;;;;;;;4938205;28;20667;-68
2023/07/03 08:44:19;;;;;;;22.67;3.58;;;;;;;;;;4931835;28;20035;-70
2023/07/03 08:46:45;;;;;;;25.20;3.45;;;;;;;;;;4930142;28;20031;-69
2023/07/03 08:49:13;;;;;;;17.55;2.85;;;;;;;;;;4925185;28;20047;-69
2023/07/03 08:51:39;;;;;;;23.25;3.20;;;;;;;;;;4901630;28;20087;-68
2023/07/03 08:54:16;;;;;;;19.00;3.25;;;;;;;;;;4925838;28;20043;-70
2023/07/03 08:56:42;;;;;;;25.33;3.70;;;;;;;;;;4945892;28;20034;-67
2023/07/03 08:59:07;;;;;;;18.42;2.72;;;;;;;;;;4943751;28;20049;-68
2023/07/03 09:01:37;;;;;;;18.45;3.13;;;;;;;;;;4940849;28;20031;-69
2023/07/03 09:04:12;;;;;;;24.77;3.45;;;;;;;;;;4939527;28;20034;-69
2023/07/03 09:06:47;;;;;;;23.25;3.30;;;;;;;;;;4944717;28;20035;-69
2023/07/03 09:09:31;;;;;;;23.13;3.05;;;;;;;;;;4946844;28;20512;-67
2023/07/03 09:12:16;;;;;;;17.92;3.20;;;;;;;;;;4943265;28;20031;-68
2023/07/03 09:14:50;;;;;;;22.80;3.22;;;;;;;;;;4949155;28;20540;-70
2023/07/03 09:17:18;;;;;;;21.92;3.20;;;;;;;;;;4947321;28;20041;-69
2023/07/03 09:19:45;;;;;;;16.20;2.72;;;;;;;;;;4910188;28;20039;-69
2023/07/03 09:22:18;;;;;;;13.02;2.30;;;;;;;;;;4952962;28;20114;-68
2023/07/03 09:24:44;;;;;;;24.90;3.00;;;;;;;;;;4941654;28;20113;-68
2023/07/03 09:27:12;;;;;;;22.63;3.10;;;;;;;;;;4944057;28;20162;-68
2023/07/03 09:29:38;;;;;;;15.23;2.33;;;;;;;;;;4943495;28;20031;-68
2023/07/03 09:32:04;;;;;;;19.92;2.78;;;;;;;;;;4942496;28;20495;-69
2023/07/03 09:34:49;;;;;;;17.92;3.45;;;;;;;;;;4941811;28;20031;-68
2023/07/03 09:37:14;;;;;;;16.23;3.40;;;;;;;;;;4939192;28;20038;-62
2023/07/03 09:39:40;;;;;;;20.70;3.40;;;;;;;;;;4935322;28;20034;-61
2023/07/03 09:42:07;;;;;;;22.75;3.75;;;;;;;;;;4917939;28;20125;-62
2023/07/03 09:44:32;;;;;;;21.77;3.53;;;;;;;;;;4937930;28;20137;-62
2023/07/03 09:46:59;;;;;;;18.45;2.88;;;;;;;;;;4938030;28;20031;-62
2023/07/03 09:49:28;;;;;;;34.97;4.05;;;;;;;;;;4939041;28;20066;-61
2023/07/03 09:51:56;;;;;;;23.30;3.70;;;;;;;;;;4937378;28;20062;-62
2023/07/03 09:54:27;;;;;;;21.33;3.17;;;;;;;;;;4921269;28;20049;-63
2023/07/03 09:56:53;;;;;;;24.35;3.78;;;;;;;;;;4919579;28;20035;-63
2023/07/03 09:59:19;;;;;;;22.92;3.30;;;;;;;;;;4938811;28;20053;-63
2023/07/03 10:01:45;;;;;;;21.25;3.38;;;;;;;;;;4937295;28;20083;-62
2023/07/03 10:04:12;;;;;;;18.02;3.00;;;;;;;;;;4938020;28;20605;-63
2023/07/03 10:06:40;;;;;;;22.88;3.90;;;;;;;;;;4936854;28;20963;-62
2023/07/03 10:09:14;;;;;;;21.00;2.80;;;;;;;;;;4939411;28;20023;-61
2023/07/03 10:11:43;;;;;;;23.02;3.80;;;;;;;;;;4914344;28;20034;-62
2023/07/03 10:14:10;;;;;;;21.73;3.03;;;;;;;;;;4913965;28;20034;-63
2023/07/03 10:16:39;;;;;;;26.83;3.75;;;;;;;;;;4913930;28;20030;-62
2023/07/03 10:19:08;;;;;;;19.70;3.77;;;;;;;;;;4936012;28;20036;-62
2023/07/03 10:21:33;;;;;;;18.95;3.10;;;;;;;;;;4936077;28;25786;-63
2023/07/03 10:24:00;;;;;;;24.88;3.30;;;;;;;;;;4935960;28;20034;-63
2023/07/03 10:26:34;;;;;;;16.80;3.08;;;;;;;;;;4934699;28;20046;-62
2023/07/03 10:29:10;;;;;;;22.00;3.60;;;;;;;;;;4937756;28;20035;-61
2023/07/03 10:31:42;;;;;;;20.73;3.22;;;;;;;;;;4930891;28;20138;-61
2023/07/03 10:34:10;;;;;;;22.88;3.22;;;;;;;;;;4933702;28;20045;-63
2023/07/03 10:36:37;;;;;;;24.25;3.67;;;;;;;;;;4939291;28;20046;-63
2023/07/03 10:39:19;;;;;;;23.05;3.50;;;;;;;;;;4918148;28;20919;-63
2023/07/03 10:41:47;;;;;;;20.85;3.17;;;;;;;;;;4919184;28;20192;-65
2023/07/03 10:44:18;;;;;;;24.77;3.10;;;;;;;;;;4939237;28;20050;-62
2023/07/03 10:46:50;;;;;;;21.20;3.58;;;;;;;;;;4939549;28;20038;-62
2023/07/03 10:49:44;;;;;;;16.63;3.00;;;;;;;;;;4939097;28;20039;-62
2023/07/03 10:52:35;;;;;;;20.63;3.40;;;;;;;;;;4905655;28;20677;-62
2023/07/03 10:55:04;;;;;;;23.15;3.80;;;;;;;;;;4896880;28;20058;-64
2023/07/03 10:57:42;;;;;;;19.10;2.97;;;;;;;;;;4922356;28;20123;-61
2023/07/03 11:00:12;;;;;;;18.88;3.00;;;;;;;;;;4940465;28;20145;-61
2023/07/03 11:02:50;;;;;;;16.02;3.03;;;;;;;;;;4938329;28;20547;-63
2023/07/03 11:05:19;;;;;;;29.60;3.67;;;;;;;;;;4936348;28;20051;-61
2023/07/03 11:07:50;;;;;;;26.52;3.42;;;;;;;;;;4919999;28;20047;-63
2023/07/03 11:10:26;;;;;;;19.60;3.30;;;;;;;;;;4940423;28;20496;-64
2023/07/03 11:12:58;;;;;;;23.65;3.20;;;;;;;;;;4934737;28;20639;-64
2023/07/03 11:15:33;;;;;;;24.38;3.30;;;;;;;;;;4937300;28;20831;-64
2023/07/03 11:18:17;;;;;;;23.92;3.35;;;;;;;;;;4936354;28;20043;-62
2023/07/03 11:20:45;;;;;;;25.27;3.67;;;;;;;;;;4938906;28;20043;-63
2023/07/03 11:23:19;;;;;;;21.27;3.80;;;;;;;;;;4917260;28;20150;-65
2023/07/03 11:25:50;;;;;;;23.88;3.45;;;;;;;;;;4938246;28;20090;-64
2023/07/03 11:28:24;;;;;;;30.65;3.70;;;;;;;;;;4937520;28;20035;-65
2023/07/03 11:30:50;;;;;;;26.75;3.85;;;;;;;;;;4939528;28;21073;-62
2023/07/03 11:33:16;;;;;;;24.42;3.30;;;;;;;;;;4937268;28;20039;-65
2023/07/03 11:35:51;;;;;;;24.38;3.15;;;;;;;;;;4938317;28;20054;-66
2023/07/03 11:38:19;;;;;;;28.02;3.13;;;;;;;;;;4937479;28;20129;-65
2023/07/03 11:40:53;;;;;;;22.60;3.33;;;;;;;;;;4938873;28;20039;-63
2023/07/03 11:43:22;;;;;;;28.02;3.55;;;;;;;;;;4915514;28;20146;-65
2023/07/03 11:45:50;;;;;;;18.35;3.05;;;;;;;;;;4939506;28;20062;-63
2023/07/03 11:48:38;;;;;;;23.00;3.20;;;;;;;;;;4936775;28;20591;-62
2023/07/03 11:51:13;;;;;;;28.48;3.55;;;;;;;;;;4926847;28;20039;-65
2023/07/03 11:53:54;;;;;;;15.90;2.67;;;;;;;;;;4935709;28;20034;-67
2023/07/03 11:56:44;;;;;;;23.65;3.30;;;;;;;;;;4913997;28;20043;-65
2023/07/03 11:59:17;;;;;;;20.58;3.17;;;;;;;;;;4918751;28;20046;-65
2023/07/03 12:01:43;;;;;;;20.67;3.17;;;;;;;;;;4921677;28;20044;-63
2023/07/03 12:04:08;;;;;;;21.83;3.40;;;;;;;;;;4900296;28;20035;-64
2023/07/03 12:06:40;;;;;;;20.15;3.47;;;;;;;;;;4898913;28;20070;-63
2023/07/03 12:09:23;;;;;;;24.50;3.90;;;;;;;;;;4919767;28;20042;-62
2023/07/03 12:12:00;;;;;;;25.20;3.55;;;;;;;;;;4917230;28;20032;-64
2023/07/03 12:14:56;;;;;;;28.35;4.10;;;;;;;;;;4916544;28;20066;-62
2023/07/03 12:17:24;;;;;;;30.85;4.50;;;;;;;;;;4915056;28;20046;-63
2023/07/03 12:19:52;;;;;;;33.00;4.18;;;;;;;;;;4911951;28;20086;-62
2023/07/03 12:22:22;;;;;;;30.73;4.70;;;;;;;;;;4916882;28;20113;-62
2023/07/03 12:24:47;;;;;;;30.77;3.63;;;;;;;;;;4895336;28;21636;-62
2023/07/03 12:27:14;;;;;;;23.13;3.70;;;;;;;;;;4918311;28;20028;-64
2023/07/03 12:29:47;;;;;;;29.10;3.35;;;;;;;;;;4915882;28;20048;-63
2023/07/03 12:32:12;;;;;;;29.98;4.18;;;;;;;;;;4916644;28;20035;-65
2023/07/03 12:34:39;;;;;;;32.78;4.40;;;;;;;;;;4918064;28;20508;-64
2023/07/03 12:37:09;;;;;;;24.67;4.20;;;;;;;;;;4918846;28;20511;-64
2023/07/03 12:39:34;;;;;;;25.88;4.13;;;;;;;;;;4915137;28;20036;-62
2023/07/03 12:42:10;;;;;;;29.92;4.82;;;;;;;;;;4915704;28;20050;-63
2023/07/03 12:44:36;;;;;;;33.80;4.30;;;;;;;;;;4902394;28;20052;-62
2023/07/03 12:47:08;;;;;;;39.83;5.10;;;;;;;;;;4917570;28;20047;-61
2023/07/03 12:49:46;;;;;;;28.17;4.30;;;;;;;;;;4899033;28;20031;-63
2023/07/03 12:52:13;;;;;;;28.90;4.38;;;;;;;;;;4921050;28;20086;-64
2023/07/03 12:54:38;;;;;;;32.85;4.55;;;;;;;;;;4923897;28;21530;-63
2023/07/03 12:57:05;;;;;;;30.67;4.30;;;;;;;;;;4941046;28;20093;-61
2023/07/03 12:59:31;;;;;;;28.55;4.05;;;;;;;;;;4937932;28;20268;-61
2023/07/03 13:01:59;;;;;;;32.05;5.13;;;;;;;;;;4921954;28;20837;-62
2023/07/03 13:04:31;;;;;;;24.45;3.97;;;;;;;;;;4938060;28;20039;-62
2023/07/03 13:06:57;;;;;;;28.65;3.80;;;;;;;;;;4903352;28;20030;-62
2023/07/03 13:09:23;;;;;;;34.40;4.95;;;;;;;;;;4938346;28;20583;-64
2023/07/03 13:11:50;;;;;;;29.98;3.67;;;;;;;;;;4937606;28;20560;-63
2023/07/03 13:14:23;;;;;;;32.28;4.18;;;;;;;;;;4940239;28;20038;-62
2023/07/03 13:16:51;;;;;;;36.05;4.88;;;;;;;;;;4937524;28;20038;-60
2023/07/03 13:19:25;;;;;;;31.10;4.10;;;;;;;;;;4939311;28;20105;-61
2023/07/03 13:21:51;;;;;;;26.98;3.60;;;;;;;;;;4939218;28;20754;-64
2023/07/03 13:24:16;;;;;;;32.83;4.13;;;;;;;;;;4901997;28;20094;-63
2023/07/03 13:26:45;;;;;;;36.78;4.63;;;;;;;;;;4938176;28;20060;-63
2023/07/03 13:29:14;;;;;;;29.38;4.43;;;;;;;;;;4937946;28;20114;-64
2023/07/03 13:31:39;;;;;;;29.55;4.00;;;;;;;;;;4935505;28;21510;-60
2023/07/03 13:34:07;;;;;;;32.70;4.57;;;;;;;;;;4914072;28;20173;-61
2023/07/03 13:36:35;;;;;;;34.22;4.22;;;;;;;;;;4935563;28;20035;-63
2023/07/03 13:39:02;;;;;;;42.25;5.32;;;;;;;;;;4938629;28;20038;-61
2023/07/03 13:41:27;;;;;;;27.27;3.67;;;;;;;;;;4935144;28;21783;-62
2023/07/03 13:43:56;;;;;;;30.40;3.67;;;;;;;;;;4937862;28;20066;-62
2023/07/03 13:46:22;;;;;;;38.90;4.07;;;;;;;;;;4936645;28;20102;-62
2023/07/03 13:48:47;;;;;;;41.72;4.85;;;;;;;;;;4937986;28;20042;-62
2023/07/03 13:51:12;;;;;;;47.42;5.53;;;;;;;;;;4935401;28;20566;-62
2023/07/03 13:53:40;;;;;;;32.28;4.25;;;;;;;;;;4924688;28;22295;-62
2023/07/03 13:56:05;;;;;;;58.50;5.95;;;;;;;;;;4937337;28;20051;-62
2023/07/03 13:58:31;;;;;;;78.10;7.03;;;;;;;;;;4936202;28;20031;-62
2023/07/03 14:00:57;;;;;;;47.03;5.47;;;;;;;;;;4936079;28;20101;-63
2023/07/03 14:03:22;;;;;;;28.67;4.32;;;;;;;;;;4935908;28;20547;-63
2023/07/03 14:05:48;;;;;;;33.97;4.40;;;;;;;;;;4936965;28;20132;-62
2023/07/03 14:08:14;;;;;;;38.13;4.43;;;;;;;;;;4937550;28;20035;-64
2023/07/03 14:10:40;;;;;;;46.92;4.65;;;;;;;;;;4918463;28;20078;-62
2023/07/03 14:13:05;;;;;;;32.78;5.32;;;;;;;;;;4937601;28;20031;-62
2023/07/03 14:15:31;;;;;;;33.53;5.43;;;;;;;;;;4936471;28;20109;-64
2023/07/03 14:17:57;;;;;;;29.83;4.30;;;;;;;;;;4936106;28;20094;-62
2023/07/03 14:20:22;;;;;;;40.33;5.03;;;;;;;;;;4935818;28;20141;-64
2023/07/03 14:22:48;;;;;;;38.20;4.63;;;;;;;;;;4935606;28;20678;-63
2023/07/03 14:25:13;;;;;;;30.83;4.40;;;;;;;;;;4937054;28;22349;-61
2023/07/03 14:27:39;;;;;;;43.15;5.30;;;;;;;;;;4932543;28;20637;-62
2023/07/03 14:30:06;;;;;;;26.85;4.32;;;;;;;;;;4938908;28;20035;-62
2023/07/03 14:32:31;;;;;;;28.45;4.10;;;;;;;;;;4934417;28;20424;-63
2023/07/03 14:34:56;;;;;;;36.70;4.38;;;;;;;;;;4937409;28;20043;-60